sim
Sign-in with your pilot id or email,
or register
Callsign
Passwort

Schedule Details

Flight Number: OEO8744
Departure: Munich Airport (EDDM) at 05:30
Arrival: Bratislava M. R. Stefanik Airport (LZIB) at 06:40

Weather Information
Getting current METAR information for EDDM 260020Z 27009KT 9999 -RA FEW025 BKN037 07/06 Q1000 NOSIG
Getting current METAR information for LZIB 260030Z 28021G31KT 9999 -RA SCT008 OVC024 08/06 Q0994 WS R13

Schedule Frequency

Route Map